.
WxDataArchive / Data Records for 2016-01-03
2016-01-02 January 2016 2016-01-04

Data Records for Sunday, 03 January 2016

Time	Temp	Chill	HIndex	Humid	Dewpt	 Wind 	HiWind	WindDir	Rain 	Barom
-----	----	-----	------	-----	-----	------	------	-------	-----	-----
00:00	31.2	31.2	31.2	80	25.8	3	7	248	0.00	29.897 
00:05	31.0	31.0	31.0	80	25.6	2	6	248	0.00	29.897 
00:10	31.0	31.0	31.0	80	25.6	2	5	248	0.00	29.897 
00:15	31.0	31.0	31.0	80	25.6	1	4	248	0.00	29.887 
00:20	31.0	31.0	31.0	80	25.6	2	6	248	0.00	29.887 
00:25	31.0	31.0	31.0	80	25.6	2	5	248	0.00	29.887 
00:30	31.0	31.0	31.0	80	25.6	3	6	270	0.00	29.895 
00:35	31.0	31.0	31.0	79	25.3	2	5	248	0.00	29.895 
00:40	30.9	30.9	30.9	80	25.5	1	5	248	0.00	29.895 
00:45	30.9	30.9	30.9	80	25.5	2	5	248	0.00	29.888 
00:50	30.7	30.7	30.7	80	25.3	2	5	270	0.00	29.888 
00:55	30.7	30.7	30.7	80	25.3	2	6	248	0.00	29.888 
01:00	30.7	30.7	30.7	80	25.3	2	5	270	0.00	29.891 
01:05	30.6	30.6	30.6	80	25.2	2	4	270	0.00	29.891 
01:10	30.6	30.6	30.6	80	25.2	1	3	270	0.00	29.891 
01:15	30.6	30.6	30.6	80	25.2	2	5	248	0.00	29.880 
01:20	30.6	30.6	30.6	80	25.2	1	4	270	0.00	29.880 
01:25	30.6	30.6	30.6	80	25.2	2	3	270	0.00	29.880 
01:30	30.6	30.6	30.6	80	25.2	1	4	270	0.00	29.883 
01:35	30.7	30.7	30.7	80	25.3	1	4	270	0.00	29.883 
01:40	30.6	30.6	30.6	80	25.2	1	4	270	0.00	29.883 
01:45	30.6	30.6	30.6	80	25.2	1	4	270	0.00	29.885 
01:50	30.7	30.7	30.7	80	25.3	1	3	270	0.00	29.885 
01:55	30.7	30.7	30.7	80	25.3	2	5	270	0.00	29.885 
02:00	30.9	30.9	30.9	79	25.2	2	4	270	0.00	29.885 
02:05	30.9	30.9	30.9	79	25.2	1	4	270	0.00	29.885 
02:10	31.0	31.0	31.0	79	25.3	2	5	270	0.00	29.885 
02:15	31.0	31.0	31.0	78	25.0	3	5	248	0.00	29.881 
02:20	31.0	31.0	31.0	78	25.0	2	5	248	0.00	29.881 
02:25	31.0	31.0	31.0	78	25.0	2	5	292	0.00	29.881 
02:30	31.0	31.0	31.0	78	25.0	2	5	270	0.00	29.887 
02:35	31.0	31.0	31.0	78	25.0	3	5	248	0.00	29.887 
02:40	31.0	31.0	31.0	78	25.0	2	6	270	0.00	29.887 
02:45	30.9	30.9	30.9	78	24.9	2	5	270	0.00	29.890 
02:50	30.9	30.9	30.9	78	24.9	3	5	270	0.00	29.890 
02:55	30.9	30.9	30.9	78	24.9	3	5	248	0.00	29.890 
03:00	30.9	30.9	30.9	78	24.9	2	4	270	0.00	29.896 
03:05	30.7	30.7	30.7	78	24.7	2	4	270	0.00	29.896 
03:10	30.7	30.7	30.7	78	24.7	2	5	270	0.00	29.896 
03:15	30.6	30.6	30.6	78	24.6	2	5	270	0.00	29.900 
03:20	30.4	30.4	30.4	78	24.4	2	4	270	0.00	29.900 
03:25	30.4	30.4	30.4	77	24.1	2	9	248	0.00	29.900 
03:30	30.3	30.3	30.3	77	24.0	2	4	248	0.00	29.909 
03:35	30.3	30.3	30.3	77	24.0	2	5	248	0.00	29.909 
03:40	30.3	30.3	30.3	77	24.0	2	6	270	0.00	29.909 
03:45	30.1	30.1	30.1	76	23.5	2	4	270	0.00	29.912 
03:50	30.1	30.1	30.1	76	23.5	1	4	270	0.00	29.912 
03:55	30.1	30.1	30.1	76	23.5	2	6	270	0.00	29.912 
04:00	30.0	30.0	30.0	76	23.4	3	6	270	0.00	29.919 
04:05	30.0	30.0	30.0	76	23.4	2	5	270	0.00	29.919 
04:10	30.0	30.0	30.0	76	23.4	2	4	270	0.00	29.919 
04:15	30.0	30.0	30.0	76	23.4	1	3	292	0.00	29.926 
04:20	29.8	29.8	29.8	76	23.2	1	4	292	0.00	29.926 
04:25	29.8	29.8	29.8	76	23.2	1	3	292	0.00	29.926 
04:30	29.8	29.8	29.8	76	23.2	1	2	292	0.00	29.929 
04:35	29.8	29.8	29.8	76	23.2	1	4	292	0.00	29.929 
04:40	29.7	29.7	29.7	76	23.1	1	3	292	0.00	29.929 
04:45	29.7	29.7	29.7	76	23.1	2	4	270	0.00	29.929 
04:50	29.7	29.7	29.7	76	23.1	1	3	270	0.00	29.929 
04:55	29.5	29.5	29.5	76	22.9	1	3	270	0.00	29.929 
05:00	29.5	29.5	29.5	76	22.9	1	3	270	0.00	29.932 
05:05	29.5	29.5	29.5	76	22.9	1	6	338	0.00	29.932 
05:10	29.5	29.5	29.5	76	22.9	1	3	338	0.00	29.932 
05:15	29.5	29.5	29.5	76	22.9	1	2	338	0.00	29.938 
05:20	29.5	29.5	29.5	77	23.2	0	2	338	0.00	29.938 
05:25	29.4	29.4	29.4	77	23.1	1	2	338	0.00	29.938 
05:30	29.4	29.4	29.4	77	23.1	0	2	338	0.00	29.942 
05:35	29.4	29.4	29.4	77	23.1	1	3	315	0.00	29.942 
05:40	29.4	29.4	29.4	77	23.1	0	2	315	0.00	29.942 
05:45	29.4	29.4	29.4	77	23.1	0	2	315	0.00	29.948 
05:50	29.4	29.4	29.4	77	23.1	0	1	315	0.00	29.948 
05:55	29.4	29.4	29.4	77	23.1	0	1	315	0.00	29.948 
06:00	29.4	29.4	29.4	77	23.1	0	1	315	0.00	29.950 
06:05	29.4	29.4	29.4	77	23.1	0	2	315	0.00	29.950 
06:10	29.4	29.4	29.4	77	23.1	0	2	315	0.00	29.950 
06:15	29.4	29.4	29.4	77	23.1	0	2	315	0.00	29.957 
06:20	29.4	29.4	29.4	77	23.1	0	2	315	0.00	29.957 
06:25	29.4	29.4	29.4	77	23.1	0	1	315	0.00	29.957 
06:30	29.4	29.4	29.4	77	23.1	0	1	315	0.00	29.965 
06:35	29.4	29.4	29.4	78	23.4	0	4	315	0.00	29.965 
06:40	29.5	29.5	29.5	78	23.5	0	1	315	0.00	29.965 
06:45	29.5	29.5	29.5	78	23.5	0	2	315	0.00	29.964 
06:50	29.5	29.5	29.5	78	23.5	0	2	315	0.00	29.964 
06:55	29.5	29.5	29.5	78	23.5	0	1	315	0.00	29.964 
07:00	29.5	29.5	29.5	78	23.5	0	1	315	0.00	29.971 
07:05	29.5	29.5	29.5	78	23.5	0	2	315	0.00	29.971 
07:10	29.5	29.5	29.5	78	23.5	0	1	315	0.00	29.971 
07:15	29.5	29.5	29.5	78	23.5	0	1	315	0.00	29.977 
07:20	29.5	29.5	29.5	78	23.5	0	1	315	0.00	29.977 
07:25	29.5	29.5	29.5	78	23.5	0	1	315	0.00	29.977 
07:30	29.5	29.5	29.5	78	23.5	0	1	315	0.00	29.979 
07:35	29.5	29.5	29.5	78	23.5	0	1	315	0.00	29.979 
07:40	29.5	29.5	29.5	78	23.5	0	1	315	0.00	29.979 
07:45	29.5	29.5	29.5	78	23.5	0	1	315	0.00	29.982 
07:50	29.5	29.5	29.5	78	23.5	0	2	315	0.00	29.982 
07:55	29.5	29.5	29.5	78	23.5	0	1	315	0.00	29.982 
08:00	29.5	29.5	29.5	78	23.5	0	1	315	0.00	29.985 
08:05	29.5	29.5	29.5	78	23.5	0	1	315	0.00	29.985 
08:10	29.5	29.5	29.5	78	23.5	0	1	315	0.00	29.985 
08:15	29.5	29.5	29.5	78	23.5	0	1	315	0.00	29.993 
08:20	29.5	29.5	29.5	78	23.5	0	1	315	0.00	29.993 
08:25	29.5	29.5	29.5	78	23.5	0	1	315	0.00	29.993 
08:30	29.5	29.5	29.5	79	23.8	0	1	315	0.00	29.994 
08:35	29.4	29.4	29.4	78	23.4	0	1	315	0.00	29.994 
08:40	29.4	29.4	29.4	79	23.7	0	1	315	0.00	29.994 
08:45	29.4	29.4	29.4	79	23.7	0	1	315	0.00	29.999 
08:50	29.4	29.4	29.4	79	23.7	0	3	315	0.00	29.999 
08:55	29.4	29.4	29.4	79	23.7	0	1	315	0.00	29.999 
09:00	29.4	29.4	29.4	79	23.7	0	3	270	0.00	30.005 
09:05	29.4	29.4	29.4	80	24.0	0	1	270	0.00	30.005 
09:10	29.4	29.4	29.4	80	24.0	0	2	270	0.00	30.005 
09:15	29.4	29.4	29.4	80	24.0	0	1	270	0.00	30.009 
09:20	29.4	29.4	29.4	80	24.0	0	1	270	0.00	30.009 
09:25	29.4	29.4	29.4	80	24.0	0	2	270	0.00	30.009 
09:30	29.4	29.4	29.4	80	24.0	0	1	270	0.00	30.011 
09:35	29.4	29.4	29.4	80	24.0	0	2	270	0.00	30.011 
09:40	29.5	29.5	29.5	80	24.1	0	2	270	0.00	30.011 
09:45	29.5	29.5	29.5	80	24.1	0	2	270	0.00	30.018 
09:50	29.5	29.5	29.5	80	24.1	0	2	270	0.00	30.018 
09:55	29.5	29.5	29.5	80	24.1	0	1	270	0.00	30.018 
10:00	29.7	29.7	29.7	80	24.3	0	1	270	0.00	30.024 
10:05	29.7	29.7	29.7	80	24.3	0	1	270	0.00	30.024 
10:10	29.7	29.7	29.7	80	24.3	1	3	270	0.00	30.024 
10:15	29.7	29.7	29.7	80	24.3	1	3	270	0.00	30.028 
10:20	29.8	29.8	29.8	80	24.4	0	2	270	0.00	30.028 
10:25	29.8	29.8	29.8	80	24.4	0	2	270	0.00	30.028 
10:30	29.8	29.8	29.8	80	24.4	0	1	270	0.00	30.035 
10:35	29.8	29.8	29.8	80	24.4	0	1	270	0.00	30.035 
10:40	29.8	29.8	29.8	80	24.4	0	2	270	0.00	30.035 
10:45	29.8	29.8	29.8	80	24.4	0	2	270	0.00	30.041 
10:50	29.7	29.7	29.7	80	24.3	1	2	270	0.00	30.041 
10:55	29.5	29.5	29.5	80	24.1	1	2	270	0.00	30.041 
11:00	29.5	29.5	29.5	80	24.1	1	3	270	0.00	30.042 
11:05	29.5	29.5	29.5	80	24.1	1	3	270	0.00	30.042 
11:10	29.5	29.5	29.5	80	24.1	1	2	270	0.00	30.042 
11:15	29.5	29.5	29.5	81	24.4	0	2	270	0.00	30.045 
11:20	29.5	29.5	29.5	81	24.4	0	2	270	0.00	30.045 
11:25	29.5	29.5	29.5	81	24.4	0	1	270	0.00	30.045 
11:30	29.7	29.7	29.7	81	24.6	0	2	270	0.00	30.046 
11:35	29.7	29.7	29.7	81	24.6	1	2	270	0.00	30.046 
11:40	29.5	29.5	29.5	81	24.4	1	3	270	0.00	30.046 
11:45	29.5	29.5	29.5	82	24.7	0	1	270	0.00	30.046 
11:50	29.5	29.5	29.5	82	24.7	0	2	270	0.00	30.046 
11:55	29.5	29.5	29.5	82	24.7	1	3	270	0.00	30.046 
12:00	29.5	29.5	29.5	82	24.7	1	3	270	0.00	30.043 
12:05	29.7	29.7	29.7	82	24.9	1	3	270	0.00	30.043 
12:10	29.8	29.8	29.8	82	25.0	0	1	270	0.00	30.043 
12:15	29.8	29.8	29.8	82	25.0	1	3	270	0.00	30.043 
12:20	29.8	29.8	29.8	82	25.0	1	3	270	0.00	30.043 
12:25	29.8	29.8	29.8	82	25.0	1	3	270	0.00	30.043 
12:30	30.0	30.0	30.0	82	25.2	0	2	270	0.00	30.043 
12:35	30.1	30.1	30.1	82	25.3	0	3	270	0.00	30.043 
12:40	30.1	30.1	30.1	82	25.3	1	3	270	0.00	30.043 
12:45	30.1	30.1	30.1	82	25.3	0	2	270	0.00	30.042 
12:50	30.3	30.3	30.3	82	25.5	1	3	270	0.00	30.042 
12:55	30.3	30.3	30.3	82	25.5	0	2	270	0.00	30.042 
13:00	30.6	30.6	30.6	82	25.8	0	2	270	0.00	30.039 
13:05	30.7	30.7	30.7	82	25.9	0	3	270	0.00	30.039 
13:10	31.0	31.0	31.0	82	26.2	0	2	270	0.00	30.039 
13:15	31.2	31.2	31.2	81	26.1	0	1	270	0.00	30.035 
13:20	31.3	31.3	31.3	81	26.2	0	2	270	0.00	30.035 
13:25	31.5	31.5	31.5	81	26.4	0	2	270	0.00	30.035 
13:30	31.6	31.6	31.6	80	26.2	1	3	270	0.00	30.037 
13:35	31.8	31.8	31.8	80	26.3	0	1	270	0.00	30.037 
13:40	31.9	31.9	31.9	80	26.4	0	2	270	0.00	30.037 
13:45	31.9	31.9	31.9	77	25.5	1	3	270	0.00	30.040 
13:50	32.1	32.1	32.1	72	24.1	2	5	0	0.00	30.040 
13:55	32.2	32.2	32.2	68	22.8	1	2	0	0.00	30.040 
14:00	32.4	32.4	32.4	65	22.0	1	3	338	0.00	30.042 
14:05	32.5	32.5	32.5	64	21.7	1	4	292	0.00	30.042 
14:10	32.5	32.5	32.5	63	21.3	1	6	338	0.00	30.042 
14:15	32.7	32.7	32.7	62	21.1	1	6	338	0.00	30.043 
14:20	32.7	32.7	32.7	62	21.1	1	4	270	0.00	30.043 
14:25	32.8	32.8	32.8	61	20.9	2	6	292	0.00	30.043 
14:30	32.8	32.8	32.8	60	20.5	2	6	292	0.00	30.046 
14:35	32.7	32.7	32.7	60	20.4	1	3	292	0.00	30.046 
14:40	32.7	32.7	32.7	60	20.4	2	5	292	0.00	30.046 
14:45	32.7	32.7	32.7	60	20.4	2	6	315	0.00	30.051 
14:50	32.7	32.7	32.7	60	20.4	2	5	292	0.00	30.051 
14:55	32.7	32.7	32.7	60	20.4	1	4	292	0.00	30.051 
15:00	32.7	32.7	32.7	60	20.4	2	4	338	0.00	30.052 
15:05	32.7	32.7	32.7	60	20.4	2	6	270	0.00	30.052 
15:10	32.7	32.7	32.7	60	20.4	2	6	292	0.00	30.052 
15:15	32.7	32.7	32.7	60	20.4	2	4	270	0.00	30.059 
15:20	32.7	32.7	32.7	60	20.4	2	6	292	0.00	30.059 
15:25	32.7	32.7	32.7	60	20.4	1	5	292	0.00	30.059 
15:30	32.7	32.7	32.7	59	20.0	2	6	292	0.00	30.069 
15:35	32.5	32.5	32.5	59	19.8	2	6	315	0.00	30.069 
15:40	32.5	32.5	32.5	59	19.8	3	5	292	0.00	30.069 
15:45	32.5	32.5	32.5	59	19.8	2	7	338	0.00	30.073 
15:50	32.4	32.4	32.4	59	19.7	1	6	338	0.00	30.073 
15:55	32.5	32.5	32.5	59	19.8	1	4	315	0.00	30.073 
16:00	32.5	32.5	32.5	58	19.4	1	4	292	0.00	30.073 
16:05	32.5	32.5	32.5	59	19.8	1	4	270	0.00	30.073 
16:10	32.5	32.5	32.5	58	19.4	2	6	338	0.00	30.073 
16:15	32.5	32.5	32.5	58	19.4	1	4	270	0.00	30.075 
16:20	32.5	32.5	32.5	58	19.4	1	4	270	0.00	30.075 
16:25	32.5	32.5	32.5	58	19.4	1	3	292	0.00	30.075 
16:30	32.4	32.4	32.4	58	19.3	2	6	338	0.00	30.080 
16:35	32.4	32.4	32.4	57	18.9	2	6	270	0.00	30.080 
16:40	32.4	32.4	32.4	58	19.3	1	3	292	0.00	30.080 
16:45	32.4	32.4	32.4	58	19.3	1	5	315	0.00	30.083 
16:50	32.4	32.4	32.4	58	19.3	0	2	315	0.00	30.083 
16:55	32.2	32.2	32.2	58	19.1	0	2	315	0.00	30.083 
17:00	31.9	31.9	31.9	58	18.8	0	1	315	0.00	30.089 
17:05	31.8	31.8	31.8	59	19.1	0	2	315	0.00	30.089 
17:10	31.8	31.8	31.8	59	19.1	0	1	315	0.00	30.089 
17:15	31.8	31.8	31.8	59	19.1	0	2	315	0.00	30.103 
17:20	31.8	31.8	31.8	59	19.1	1	3	315	0.00	30.103 
17:25	31.8	31.8	31.8	58	18.7	1	5	315	0.00	30.103 
17:30	31.8	31.8	31.8	58	18.7	0	3	315	0.00	30.107 
17:35	31.6	31.6	31.6	59	18.9	0	3	315	0.00	30.107 
17:40	31.5	31.5	31.5	59	18.8	0	3	315	0.00	30.107 
17:45	31.3	31.3	31.3	59	18.7	0	2	315	0.00	30.112 
17:50	31.3	31.3	31.3	60	19.0	0	2	315	0.00	30.112 
17:55	31.3	31.3	31.3	60	19.0	0	3	315	0.00	30.112 
18:00	31.3	31.3	31.3	60	19.0	1	2	315	0.00	30.117 
18:05	31.2	31.2	31.2	60	19.0	0	2	315	0.00	30.117 
18:10	31.2	31.2	31.2	60	19.0	0	3	315	0.00	30.117 
18:15	31.0	31.0	31.0	61	19.1	0	1	315	0.00	30.118 
18:20	30.9	30.9	30.9	61	19.1	0	1	315	0.00	30.118 
18:25	30.7	30.7	30.7	62	19.2	0	1	315	0.00	30.118 
18:30	30.7	30.7	30.7	62	19.2	0	3	315	0.00	30.124 
18:35	30.6	30.6	30.6	62	19.2	0	1	315	0.00	30.124 
18:40	30.7	30.7	30.7	64	20.0	1	3	315	0.00	30.124 
18:45	30.7	30.7	30.7	66	20.7	1	4	315	0.00	30.134 
18:50	30.7	30.7	30.7	68	21.4	1	4	292	0.00	30.134 
18:55	30.7	30.7	30.7	70	22.1	1	4	292	0.00	30.134 
19:00	30.7	30.7	30.7	72	22.8	1	4	292	0.00	30.137 
19:05	30.6	30.6	30.6	73	23.0	0	3	292	0.00	30.137 
19:10	30.6	30.6	30.6	73	23.0	1	3	292	0.00	30.137 
19:15	30.4	30.4	30.4	71	22.1	1	3	292	0.00	30.138 
19:20	30.4	30.4	30.4	74	23.1	1	3	292	0.00	30.138 
19:25	30.3	30.3	30.3	75	23.3	1	5	292	0.00	30.138 
19:30	30.3	30.3	30.3	76	23.7	0	2	292	0.00	30.140 
19:35	30.3	30.3	30.3	76	23.7	0	3	292	0.00	30.140 
19:40	30.3	30.3	30.3	77	24.0	1	3	292	0.00	30.140 
19:45	30.3	30.3	30.3	77	24.0	1	4	292	0.00	30.149 
19:50	30.3	30.3	30.3	77	24.0	1	4	292	0.00	30.149 
19:55	30.1	30.1	30.1	78	24.1	1	4	292	0.00	30.149 
20:00	30.1	30.1	30.1	78	24.1	1	3	292	0.00	30.153 
20:05	30.0	30.0	30.0	78	24.0	0	2	292	0.00	30.153 
20:10	29.8	29.8	29.8	79	24.1	1	3	292	0.00	30.153 
20:15	29.8	29.8	29.8	79	24.1	1	3	292	0.00	30.162 
20:20	29.8	29.8	29.8	80	24.4	1	3	292	0.00	30.162 
20:25	29.8	29.8	29.8	80	24.4	2	5	292	0.00	30.162 
20:30	29.7	29.7	29.7	80	24.3	1	5	315	0.00	30.164 
20:35	29.5	29.5	29.5	81	24.4	1	5	270	0.00	30.164 
20:40	29.4	29.4	29.4	81	24.3	1	3	270	0.00	30.164 
20:45	29.3	29.3	29.3	81	24.2	0	2	270	0.00	30.165 
20:50	29.1	29.1	29.1	81	24.0	0	2	270	0.00	30.165 
20:55	29.0	29.0	29.0	81	23.9	1	4	270	0.00	30.165 
21:00	28.8	28.8	28.8	81	23.7	1	4	315	0.00	30.166 
21:05	28.7	28.7	28.7	81	23.6	1	3	315	0.00	30.166 
21:10	28.7	28.7	28.7	81	23.6	2	5	315	0.00	30.166 
21:15	28.7	28.7	28.7	81	23.6	1	4	292	0.00	30.169 
21:20	28.7	28.7	28.7	80	23.3	1	3	315	0.00	30.169 
21:25	28.7	28.7	28.7	80	23.3	1	3	315	0.00	30.169 
21:30	28.7	28.7	28.7	80	23.3	0	2	315	0.00	30.170 
21:35	28.7	28.7	28.7	79	23.0	1	4	315	0.00	30.170 
21:40	28.7	28.7	28.7	79	23.0	1	5	292	0.00	30.170 
21:45	28.5	28.5	28.5	79	22.8	1	5	292	0.00	30.169 
21:50	28.5	28.5	28.5	79	22.8	0	3	292	0.00	30.169 
21:55	28.7	28.7	28.7	78	22.7	1	4	292	0.00	30.169 
22:00	28.7	28.7	28.7	78	22.7	0	1	292	0.00	30.169 
22:05	28.7	28.7	28.7	78	22.7	0	1	292	0.00	30.169 
22:10	28.7	28.7	28.7	77	22.4	0	3	292	0.00	30.169 
22:15	28.7	28.7	28.7	77	22.4	1	3	292	0.00	30.172 
22:20	28.7	28.7	28.7	77	22.4	0	2	292	0.00	30.172 
22:25	28.7	28.7	28.7	77	22.4	1	4	315	0.00	30.172 
22:30	28.7	28.7	28.7	77	22.4	1	3	315	0.00	30.178 
22:35	28.7	28.7	28.7	76	22.1	1	3	315	0.00	30.178 
22:40	28.7	28.7	28.7	76	22.1	1	4	270	0.00	30.178 
22:45	28.7	28.7	28.7	76	22.1	1	5	270	0.00	30.181 
22:50	28.7	28.7	28.7	76	22.1	0	2	270	0.00	30.181 
22:55	28.7	28.7	28.7	75	21.8	1	4	270	0.00	30.181 
23:00	28.7	28.7	28.7	75	21.8	1	4	270	0.00	30.177 
23:05	28.7	28.7	28.7	75	21.8	0	2	270	0.00	30.177 
23:10	28.7	28.7	28.7	75	21.8	0	2	270	0.00	30.177 
23:15	28.7	28.7	28.7	74	21.5	0	2	270	0.00	30.177 
23:20	28.7	28.7	28.7	74	21.5	0	2	270	0.00	30.177 
23:25	28.7	28.7	28.7	74	21.5	1	5	270	0.00	30.177 
23:30	28.7	28.7	28.7	74	21.5	1	4	270	0.00	30.184 
23:35	28.5	28.5	28.5	74	21.3	1	3	270	0.00	30.184 
23:40	28.5	28.5	28.5	75	21.6	1	3	270	0.00	30.184 
23:45	28.5	28.5	28.5	75	21.6	0	2	270	0.00	30.186 
23:50	28.5	28.5	28.5	76	21.9	1	3	270	0.00	30.186 
23:55	28.4	28.4	28.4	76	21.8	1	4	292	0.00	30.186 

CoCoRaHS
IN-AL-39
A2 Web Hosting
Creative Commons License
GoDaddy
search engine by freefind advanced

loaded 2018-11-18 11:27:31 • last modified 2010-11-18 10:43:29
Privacy PolicyDisclaimer
• wx.awcolley.com is powered by PmWiki v.2002016 •
• all content (unless otherwise noted) © 2018 A W Colley